M I D A S
Marine Information and Data Acquisition System
Tripno 903 of the Zeeleeuw from 2005-05-24 06:47:01 to 2005-05-24 14:47:27
Back to CruiseResearch ActivitiesStationsMapUnderway DataData graphs

EquipmentUnitsComment
TimeDGPSUTC
LatitudeDGPSDM.mWGS84
LongitudeDGPSDM.mWGS84
TemperatureSBE03/SBE38deg celciusITS90
ConductivitySBE21S/mITS90
SalinitySBE21 Practical Salinity Units
ChlorophylAChelsea fluorimeterg/lCalibrated in Aceton
Missing or incorrect values are displayed as -999
Sea surface data collected by the RV Zeeleeuw from 2005-05-24 05:41:57 to 2005-05-24 14:51:47
Time Latitude Longitude Temperature Conductivity Salinity ChlorophylA
2005-05-24 05:43:02 51°13.597 2°56.109 18.828 0.080832 0.452613 -0.646411
2005-05-24 05:44:02 51°13.597 2°56.109 18.8264 0.080832 0.452643 -0.646411
2005-05-24 05:45:02 51°13.597 2°56.109 18.8165 0.080832 0.45268 -0.646411
2005-05-24 05:46:02 51°13.597 2°56.109 18.8303 0.080832 0.45271 -0.680121
2005-05-24 05:47:02 51°13.597 2°56.109 18.8365 0.080832 0.452748 -0.646411
2005-05-24 05:48:02 51°13.597 2°56.108 18.8348 0.080832 0.452778 -0.646411
2005-05-24 05:49:02 51°13.597 2°56.108 18.8381 0.080832 0.452816 -0.680121
2005-05-24 05:50:02 51°13.597 2°56.109 18.8454 0.080832 0.452846 -0.680121
2005-05-24 05:51:02 51°13.597 2°56.109 18.8475 0.080832 0.452876 -0.680121
2005-05-24 05:52:02 51°13.597 2°56.108 18.8416 0.080832 0.452913 -0.646411
2005-05-24 05:53:02 51°13.597 2°56.109 18.8409 0.080728 0.45234 -0.680121
2005-05-24 05:54:02 51°13.598 2°56.108 18.8475 0.080832 0.452974 -0.646411
2005-05-24 05:55:01 51°13.598 2°56.109 18.8398 0.080728 0.452407 -0.646411
2005-05-24 05:56:02 51°13.598 2°56.108 18.8421 0.080728 0.452437 -0.680121
2005-05-24 05:57:02 51°13.598 2°56.109 18.8478 0.080728 0.452475 -0.646411
2005-05-24 05:58:02 51°13.598 2°56.109 18.8438 0.080728 0.452505 -0.680121
2005-05-24 05:59:02 51°13.598 2°56.109 18.8378 0.080728 0.452543 -0.646411
2005-05-24 06:00:02 51°13.599 2°56.109 18.8453 0.080728 0.45258 -0.680121
2005-05-24 06:01:02 51°13.599 2°56.108 18.85 0.080728 0.452603 -0.680121
2005-05-24 06:02:02 51°13.599 2°56.108 18.847 0.080728 0.452641 -0.680121
2005-05-24 06:03:02 51°13.599 2°56.108 18.8509 0.080728 0.452671 -0.646411
2005-05-24 06:04:02 51°13.598 2°56.108 18.8524 0.080728 0.452693 -0.646411
2005-05-24 06:05:02 51°13.598 2°56.108 18.8541 0.080728 0.452731 -0.646411
2005-05-24 06:06:02 51°13.598 2°56.108 18.858 0.080728 0.452769 -0.612702
2005-05-24 06:07:02 51°13.598 2°56.108 18.8542 0.080728 0.452791 -0.646411
2005-05-24 06:08:02 51°13.598 2°56.108 18.8515 0.080728 0.452821 -0.680121
2005-05-24 06:09:02 51°13.597 2°56.108 18.8515 0.080624 0.452262 -0.646411
2005-05-24 06:10:02 51°13.597 2°56.108 18.8594 0.080728 0.452889 -0.680121
2005-05-24 06:11:02 51°13.596 2°56.107 18.8519 0.080624 0.452315 -0.680121
2005-05-24 06:12:02 51°13.596 2°56.107 18.8516 0.080624 0.452345 -0.646411
2005-05-24 06:13:01 51°13.597 2°56.107 18.866 0.080624 0.452382 -0.612702
2005-05-24 06:14:02 51°13.597 2°56.107 18.868 0.080624 0.452413 -0.646411
2005-05-24 06:15:01 51°13.598 2°56.108 18.8678 0.080624 0.452443 -0.646411
2005-05-24 06:16:02 51°13.598 2°56.109 18.8529 0.080624 0.452473 -0.646411
2005-05-24 06:17:01 51°13.598 2°56.109 18.8551 0.080624 0.452503 -0.646411
2005-05-24 06:18:01 51°13.598 2°56.109 18.8711 0.080624 0.452533 -0.680121
2005-05-24 06:19:02 51°13.598 2°56.109 18.8833 0.080624 0.452571 -0.680121
2005-05-24 06:20:01 51°13.598 2°56.109 18.8968 0.080624 0.452609 -0.646411
2005-05-24 06:21:02 51°13.599 2°56.109 18.8895 0.080624 0.452639 -0.646411
2005-05-24 06:22:00 51°13.6 2°56.109 18.8932 0.080624 0.452669 -0.680121
2005-05-24 06:23:01 51°13.6 2°56.109 18.9025 0.080624 0.452699 -0.680121
2005-05-24 06:24:00 51°13.599 2°56.109 18.9088 0.080624 0.452737 -0.680121
2005-05-24 06:25:01 51°13.599 2°56.109 18.9186 0.080624 0.452767 -0.680121
2005-05-24 06:26:01 51°13.599 2°56.109 19.0016 0.080624 0.452797 -0.646411
2005-05-24 06:27:00 51°13.598 2°56.109 16.4668 0.080624 0.452827 -0.646411
2005-05-24 06:28:01 51°13.597 2°56.106 14.5213 2.965314 22.756985 6.533691
2005-05-24 06:29:01 51°13.607 2°56.063 13.9916 3.000481 23.692547 5.825794
2005-05-24 06:30:02 51°13.631 2°55.964 13.7946 3.173882 25.561319 13.511537
2005-05-24 06:31:02 51°13.665 2°55.854 13.7044 3.229482 26.172731 12.331708
2005-05-24 06:32:02 51°13.719 2°55.75 13.6641 3.256958 25.830848 9.230443
2005-05-24 06:33:01 51°13.784 2°55.673 13.6391 3.312574 27.009408 10.578819
2005-05-24 06:34:02 51°13.867 2°55.642 13.6053 3.288141 26.807307 11.320426
2005-05-24 06:35:01 51°13.937 2°55.664 13.5654 3.340275 27.305881 13.309281
2005-05-24 06:36:01 51°13.941 2°55.609 13.6073 3.381037 27.705017 13.140734
2005-05-24 06:37:01 51°14.021 2°55.525 13.5648 3.310153 27.020512 11.253007
2005-05-24 06:38:01 51°14.131 2°55.435 13.5349 3.327215 27.220465 12.331708
2005-05-24 06:39:01 51°14.244 2°55.31 13.5359 3.331428 27.278864 11.08446
2005-05-24 06:40:01 51°14.352 2°55.118 13.5135 3.324793 27.220925 9.837212
2005-05-24 06:41:01 51°14.482 2°54.939 13.4312 3.379142 27.743486 11.185589
2005-05-24 06:42:01 51°14.665 2°54.798 13.1991 3.471735 28.685733 12.904768
2005-05-24 06:43:01 51°14.863 2°54.729 13.1028 3.58731 29.882971 9.601247
2005-05-24 06:44:01 51°15.058 2°54.622 13.0679 3.602799 30.092302 7.241589
2005-05-24 06:45:01 51°15.242 2°54.519 13.0684 3.602905 30.116591 6.297725
2005-05-24 06:46:01 51°15.435 2°54.422 13.0432 3.605013 30.146602 5.893212
2005-05-24 06:47:01 51°15.636 2°54.339 13.0479 3.598585 30.096131 5.219024
2005-05-24 06:48:01 51°15.85 2°54.263 13.0188 3.603222 30.153339 4.713383
2005-05-24 06:49:01 51°16.047 2°54.178 13.0077 3.609649 30.223566 4.645965
2005-05-24 06:50:01 51°16.152 2°54.207 12.9798 3.612916 30.261976 4.848221
2005-05-24 06:51:01 51°16.207 2°54.287 12.9676 3.606067 30.225444 4.578546
2005-05-24 06:52:01 51°16.241 2°54.301 12.9731 3.606805 30.236638 4.477418
2005-05-24 06:53:01 51°16.25 2°54.287 12.9702 3.615761 30.318796 4.511127
2005-05-24 06:54:01 51°16.254 2°54.264 12.9689 3.604381 30.214695 4.544836
2005-05-24 06:55:01 51°16.259 2°54.24 12.9776 3.604908 30.218981 4.578546
2005-05-24 06:56:01 51°16.259 2°54.215 13.0036 3.616077 30.318019 4.578546
2005-05-24 06:57:01 51°16.259 2°54.191 13.0358 3.624401 30.370085 4.544836
2005-05-24 06:58:01 51°16.259 2°54.167 13.0191 3.626086 30.368405 4.511127
2005-05-24 06:59:01 51°16.264 2°54.132 12.9947 3.62577 30.380352 4.511127
2005-05-24 07:00:01 51°16.349 2°53.902 12.9891 3.623453 30.378017 4.511127
2005-05-24 07:01:01 51°16.471 2°53.604 12.985 3.625981 30.406541 4.814512
2005-05-24 07:02:01 51°16.623 2°53.335 12.9834 3.624401 30.393684 4.544836
2005-05-24 07:03:01 51°16.788 2°53.103 12.9282 3.622294 30.383996 4.241452
2005-05-24 07:04:01 51°16.938 2°52.872 12.8551 3.641999 30.620918 3.466136
2005-05-24 07:05:01 51°17.108 2°52.669 12.8057 3.651166 30.745023 3.061623
2005-05-24 07:06:01 51°17.274 2°52.459 12.7624 3.657595 30.851421 3.162751
2005-05-24 07:07:01 51°17.445 2°52.239 12.7185 3.664129 30.950231 3.162751
2005-05-24 07:08:01 51°17.616 2°52.024 12.6813 3.66729 31.011211 3.263879
2005-05-24 07:09:01 51°17.784 2°51.81 12.6527 3.67119 31.076699 3.263879
2005-05-24 07:10:01 51°17.953 2°51.59 12.6341 3.671822 31.105124 3.263879
2005-05-24 07:11:01 51°18.124 2°51.366 12.6103 3.671717 31.121493 3.533554
2005-05-24 07:12:01 51°18.29 2°51.146 12.5831 3.676459 31.182292 3.398717
2005-05-24 07:13:01 51°18.389 2°51.052 12.5595 3.678462 31.220547 3.499845
2005-05-24 07:14:01 51°18.459 2°51.047 12.5492 3.678989 31.246866 3.533554
2005-05-24 07:15:01 51°18.498 2°51.054 12.5415 3.681096 31.270653 3.533554
2005-05-24 07:16:01 51°18.503 2°51.054 12.5417 3.678884 31.258176 3.365007
2005-05-24 07:17:01 51°18.509 2°51.058 12.5413 3.683625 31.301026 3.263879
2005-05-24 07:18:01 51°18.516 2°51.059 12.5434 3.683099 31.297345 3.263879
2005-05-24 07:19:01 51°18.522 2°51.049 12.5415 3.677514 31.240056 3.331298
2005-05-24 07:20:01 51°18.525 2°51.03 12.5312 3.673615 31.209707 3.432426
2005-05-24 07:21:01 51°18.524 2°51.009 12.5319 3.68194 31.296774 3.702101
2005-05-24 07:22:01 51°18.527 2°50.957 12.5377 3.676039 31.242312 3.76952
2005-05-24 07:23:01 51°18.483 2°50.814 12.5276 3.678251 31.26322 3.80323
2005-05-24 07:24:01 51°18.315 2°50.604 12.5418 3.680254 31.279545 3.634683
2005-05-24 07:25:01 51°18.103 2°50.4 12.5339 3.673193 31.208314 3.499845
2005-05-24 07:26:01 51°17.88 2°50.24 12.5371 3.670454 31.186965 3.634683
2005-05-24 07:27:01 51°17.653 2°50.091 12.5399 3.669927 31.176818 3.466136
2005-05-24 07:28:01 51°17.428 2°49.941 12.5425 3.667714 31.152693 3.735811
2005-05-24 07:29:01 51°17.2 2°49.791 12.5514 3.682677 31.293363 3.76952
2005-05-24 07:30:01 51°16.974 2°49.642 12.5563 3.682361 31.280003 4.039195
2005-05-24 07:31:01 51°16.746 2°49.509 12.5556 3.684152 31.29757 4.511127
2005-05-24 07:32:01 51°16.52 2°49.33 12.545 3.686997 31.32704 4.34258
2005-05-24 07:33:01 51°16.324 2°49.095 12.5498 3.686892 31.328642 3.76952
2005-05-24 07:34:01 51°16.133 2°48.859 12.5566 3.690264 31.359852 3.162751
2005-05-24 07:35:01 51°15.945 2°48.614 12.5593 3.692161 31.373223 2.6234
2005-05-24 07:36:01 51°15.761 2°48.371 12.597 3.687524 31.320984 2.589691
2005-05-24 07:37:01 51°15.575 2°48.129 12.6756 3.682887 31.240321 2.522272
2005-05-24 07:38:01 51°15.39 2°47.887 12.7192 3.671822 31.073668 2.555982
2005-05-24 07:39:01 51°15.213 2°47.637 12.7375 3.670662 31.039066 2.825657
2005-05-24 07:40:01 51°15.034 2°47.386 12.7925 3.667922 30.986486 3.027913
2005-05-24 07:41:01 51°14.847 2°47.134 12.8436 3.660651 30.874987 3.365007
2005-05-24 07:42:01 51°14.664 2°46.873 12.8842 3.652326 30.757132 3.398717
2005-05-24 07:43:01 51°14.484 2°46.608 12.9115 3.64811 30.687453 3.365007
2005-05-24 07:44:01 51°14.305 2°46.345 12.9121 3.644738 30.638974 3.23017
2005-05-24 07:45:01 51°14.122 2°46.081 12.9105 3.649691 30.685236 3.398717
2005-05-24 07:46:01 51°13.943 2°45.825 12.8913 3.661176 30.800139 3.904358
2005-05-24 07:47:01 51°13.77 2°45.57 12.8747 3.670766 30.905015 4.174033
2005-05-24 07:48:01 51°13.597 2°45.331 12.8519 3.671293 30.923267 3.870648
2005-05-24 07:49:01 51°13.418 2°45.107 12.8286 3.674981 30.973056 3.938067
2005-05-24 07:50:01 51°13.217 2°44.886 12.8219 3.681515 31.053402 3.634683
2005-05-24 07:51:01 51°13.03 2°44.64 12.8126 3.683833 31.079612 3.499845
2005-05-24 07:52:01 51°12.844 2°44.391 12.8193 3.686362 31.105891 3.263879
2005-05-24 07:53:01 51°12.657 2°44.143 12.8236 3.688364 31.122114 3.365007
2005-05-24 07:54:01 51°12.472 2°43.893 12.8251 3.688048 31.114032 3.365007
2005-05-24 07:55:01 51°12.288 2°43.644 12.8215 3.689418 31.126241 3.499845
2005-05-24 07:56:01 51°12.106 2°43.395 12.8098 3.691842 31.156018 3.971777
2005-05-24 07:57:01 51°11.926 2°43.153 12.8011 3.692896 31.172954 4.241452
2005-05-24 07:58:01 51°11.757 2°42.897 12.7905 3.695108 31.195648 4.34258
2005-05-24 07:59:01 51°11.568 2°42.665 12.7706 3.696795 31.226245 4.275161
2005-05-24 08:00:01 51°11.385 2°42.418 12.7486 3.713972 31.406365 4.072905
2005-05-24 08:01:01 51°11.232 2°42.202 12.8122 3.713024 31.398092 3.836939
2005-05-24 08:02:01 51°11.129 2°42.054 12.8363 3.69142 31.1463 3.567264
2005-05-24 08:03:02 51°11.112 2°42.004 12.8438 3.688575 31.106188 3.533554
2005-05-24 08:04:02 51°11.111 2°41.999 12.8387 3.691736 31.135188 3.600973
2005-05-24 08:05:01 51°11.11 2°41.993 12.8459 3.687942 31.099621 3.668392
2005-05-24 08:06:01 51°11.109 2°41.985 12.8479 3.685308 31.071096 3.600973
2005-05-24 08:07:01 51°11.108 2°41.975 12.8507 3.684886 31.063318 3.600973
2005-05-24 08:08:01 51°11.11 2°41.965 12.8491 3.68457 31.058442 3.600973
2005-05-24 08:09:01 51°11.112 2°41.954 12.8558 3.6832 31.04688 3.533554
2005-05-24 08:10:01 51°11.117 2°41.941 12.8632 3.681093 31.020763 3.466136
2005-05-24 08:11:01 51°11.142 2°41.872 12.8709 3.679723 31.002203 3.567264
2005-05-24 08:12:01 51°11.107 2°41.651 12.8496 3.680355 31.010034 3.668392
2005-05-24 08:13:01 51°10.991 2°41.341 12.8464 3.688996 31.098641 3.76952
2005-05-24 08:14:01 51°10.883 2°41.003 12.8158 3.697743 31.196 3.668392
2005-05-24 08:15:01 51°10.785 2°40.658 12.8152 3.702485 31.254614 3.76952
2005-05-24 08:16:01 51°10.687 2°40.311 12.8143 3.70533 31.282608 3.702101
2005-05-24 08:17:01 51°10.608 2°39.946 12.8096 3.710388 31.332031 3.735811
2005-05-24 08:18:01 51°10.535 2°39.582 12.81 3.71355 31.36172 3.76952
2005-05-24 08:19:01 51°10.461 2°39.215 12.8057 3.7204 31.425413 3.533554
2005-05-24 08:20:01 51°10.388 2°38.847 12.8141 3.726301 31.48539 3.668392
2005-05-24 08:21:01 51°10.313 2°38.481 12.8054 3.724299 31.462045 3.634683
2005-05-24 08:22:01 51°10.236 2°38.114 12.8038 3.738631 31.604545 3.668392
2005-05-24 08:23:01 51°10.17 2°37.741 12.8157 3.749275 31.702703 3.668392
2005-05-24 08:24:01 51°10.115 2°37.362 12.7994 3.750961 31.712695 3.735811
2005-05-24 08:25:01 51°10.08 2°36.976 12.7709 3.75075 31.724413 3.600973
2005-05-24 08:26:01 51°10.05 2°36.595 12.7471 3.757706 31.818684 3.432426
2005-05-24 08:27:01 51°10.054 2°36.205 12.7722 3.765505 31.893487 3.297589
2005-05-24 08:28:01 51°10.143 2°35.865 12.7684 3.770669 31.933613 3.533554
2005-05-24 08:29:01 51°10.338 2°35.76 12.6906 3.793961 32.178418 3.567264
2005-05-24 08:30:01 51°10.537 2°35.843 12.6707 3.800074 32.282061 3.668392
2005-05-24 08:31:01 51°10.722 2°35.991 12.6391 3.790694 32.21066 3.702101
2005-05-24 08:32:01 51°10.903 2°36.151 12.619 3.783107 32.164147 3.499845
2005-05-24 08:33:01 51°11.083 2°36.315 12.615 3.779418 32.142535 3.331298
2005-05-24 08:34:01 51°11.25 2°36.507 12.614 3.777943 32.128568 3.23017
2005-05-24 08:35:01 51°11.418 2°36.694 12.6256 3.776151 32.114268 3.129042
2005-05-24 08:36:01 51°11.593 2°36.867 12.6327 3.7732 32.080365 3.095332
2005-05-24 08:37:01 51°11.772 2°37.033 12.6545 3.774675 32.086363 3.19646
2005-05-24 08:38:01 51°11.947 2°37.203 12.6858 3.769722 32.01832 3.297589
2005-05-24 08:39:01 51°12.123 2°37.371 12.7058 3.760026 31.900988 3.263879
2005-05-24 08:40:01 51°12.297 2°37.536 12.7282 3.758655 31.872922 3.19646
2005-05-24 08:41:01 51°12.476 2°37.689 12.7485 3.750435 31.776363 3.19646
2005-05-24 08:42:01 51°12.658 2°37.84 12.764 3.740318 31.665348 3.162751
2005-05-24 08:43:01 51°12.837 2°37.997 12.7659 3.731887 31.574903 3.23017
2005-05-24 08:44:01 51°13.018 2°38.149 12.7656 3.731149 31.565361 3.095332
2005-05-24 08:45:01 51°13.201 2°38.304 12.7509 3.72314 31.493897 3.061623
2005-05-24 08:46:01 51°13.384 2°38.458 12.7421 3.722192 31.49665 2.791947
2005-05-24 08:47:01 51°13.574 2°38.589 12.7467 3.719452 31.474756 2.690819
2005-05-24 08:48:01 51°13.769 2°38.715 12.7404 3.723457 31.513746 2.791947
2005-05-24 08:49:01 51°13.971 2°38.804 12.7241 3.727672 31.55408 2.893076
2005-05-24 08:50:01 51°14.181 2°38.79 12.7135 3.739791 31.681926 2.758238
2005-05-24 08:51:01 51°14.385 2°38.688 12.655 3.738421 31.68731 2.522272
2005-05-24 08:52:01 51°14.571 2°38.511 12.6006 3.739371 31.740135 2.488563
2005-05-24 08:53:01 51°14.754 2°38.325 12.5427 3.745273 31.843257 2.387435
2005-05-24 08:54:01 51°14.937 2°38.14 12.473 3.744536 31.887114 2.185178
2005-05-24 08:55:01 51°15.117 2°37.948 12.4137 3.742429 31.932057 2.286306
2005-05-24 08:56:01 51°15.295 2°37.741 12.3914 3.744116 31.980645 2.320016
2005-05-24 08:57:01 51°15.469 2°37.505 12.401 3.744221 31.99763 2.454853
2005-05-24 08:58:01 51°15.645 2°37.275 12.397 3.746961 32.021018 2.454853
2005-05-24 08:59:01 51°15.824 2°37.058 12.413 3.749385 32.040732 2.421144
2005-05-24 09:00:01 51°16.034 2°36.924 12.4204 3.753811 32.065467 2.151469
2005-05-24 09:01:01 51°16.249 2°36.833 12.4184 3.759923 32.121571 2.286306
2005-05-24 09:02:01 51°16.444 2°36.771 12.407 3.765088 32.178038 2.151469
2005-05-24 09:03:01 51°16.573 2°36.757 12.3959 3.755287 32.090176 2.151469
2005-05-24 09:04:01 51°16.618 2°36.744 12.3894 3.750018 32.055422 2.185178
2005-05-24 09:05:01 51°16.622 2°36.733 12.3868 3.751493 32.070792 2.218888
2005-05-24 09:06:01 51°16.62 2°36.728 12.3872 3.751177 32.067784 2.353725
2005-05-24 09:07:01 51°16.617 2°36.722 12.3878 3.748015 32.036376 2.353725
2005-05-24 09:08:01 51°16.609 2°36.712 12.3848 3.749596 32.052079 2.252597
2005-05-24 09:09:01 51°16.601 2°36.699 12.3856 3.752652 32.082488 2.320016
2005-05-24 09:10:01 51°16.594 2°36.684 12.3922 3.747067 32.030024 2.421144
2005-05-24 09:11:01 51°16.588 2°36.669 12.3889 3.757605 32.124931 2.387435
2005-05-24 09:12:01 51°16.583 2°36.658 12.3894 3.756973 32.121591 2.353725
2005-05-24 09:13:01 51°16.525 2°36.675 12.3889 3.757711 32.129949 2.421144
2005-05-24 09:14:01 51°16.423 2°36.532 12.3861 3.755919 32.111564 2.320016
2005-05-24 09:15:01 51°16.476 2°36.211 12.3787 3.757078 32.123932 2.218888
2005-05-24 09:16:01 51°16.636 2°35.961 12.3909 3.756868 32.131296 2.185178
2005-05-24 09:17:01 51°16.824 2°35.772 12.3818 3.756552 32.119587 1.982922
2005-05-24 09:18:01 51°17.01 2°35.591 12.3216 3.763297 32.197859 2.218888
2005-05-24 09:19:01 51°17.179 2°35.373 12.2792 3.771939 32.33273 2.252597
2005-05-24 09:20:01 51°17.342 2°35.136 12.2636 3.777209 32.412118 2.218888
2005-05-24 09:21:01 51°17.492 2°34.87 12.247 3.777104 32.42738 2.286306
2005-05-24 09:22:01 51°17.638 2°34.59 12.2388 3.777842 32.441216 2.320016
2005-05-24 09:23:01 51°17.785 2°34.309 12.2398 3.778053 32.45002 2.320016
2005-05-24 09:24:01 51°17.93 2°34.029 12.2332 3.781636 32.489722 2.286306
2005-05-24 09:25:01 51°18.078 2°33.745 12.2323 3.779212 32.46586 2.353725
2005-05-24 09:26:01 51°18.225 2°33.467 12.19 3.784482 32.528515 2.320016
2005-05-24 09:27:01 51°18.372 2°33.192 12.1799 3.787117 32.586482 2.320016
2005-05-24 09:28:01 51°18.516 2°32.913 12.1558 3.785958 32.58904 2.252597
2005-05-24 09:29:01 51°18.655 2°32.628 12.1497 3.786485 32.604348 2.185178
2005-05-24 09:30:01 51°18.792 2°32.335 12.1378 3.787223 32.619633 2.151469
2005-05-24 09:31:01 51°18.932 2°32.047 12.1264 3.789436 32.653194 2.320016
2005-05-24 09:32:02 51°19.078 2°31.764 12.098 3.785747 32.622601 2.151469
2005-05-24 09:33:01 51°19.222 2°31.485 12.0923 3.785326 32.640492 2.353725
2005-05-24 09:34:01 51°19.366 2°31.201 12.1013 3.786591 32.66499 2.421144
2005-05-24 09:35:01 51°19.509 2°30.919 12.0964 3.784905 32.643305 2.421144
2005-05-24 09:36:01 51°19.655 2°30.638 12.1282 3.784588 32.632037 2.151469
2005-05-24 09:37:01 51°19.802 2°30.366 12.1485 3.778159 32.535465 2.185178
2005-05-24 09:38:01 51°19.914 2°30.165 12.0876 3.785853 32.609917 2.286306
2005-05-24 09:39:01 51°20.005 2°30.068 12.0549 3.796287 32.773987 2.387435
2005-05-24 09:40:01 51°20.037 2°30.037 12.0347 3.804087 32.864879 2.522272
2005-05-24 09:41:01 51°20.057 2°30.029 12.0354 3.800925 32.845522 2.522272
2005-05-24 09:42:01 51°20.078 2°30.018 12.0245 3.803665 32.878818 2.758238
2005-05-24 09:43:01 51°20.095 2°30.003 12.0235 3.805036 32.896858 2.758238
2005-05-24 09:44:01 51°20.106 2°29.99 12.0279 3.803982 32.88671 2.555982
2005-05-24 09:45:01 51°20.115 2°29.981 12.0477 3.803349 32.878544 2.65711
2005-05-24 09:46:02 51°20.131 2°29.957 12.0352 3.806405 32.894113 2.555982
2005-05-24 09:47:02 51°20.197 2°29.976 12.0419 3.805668 32.891168 2.859366
2005-05-24 09:48:01 51°20.255 2°30.195 12.01 3.807143 32.92201 2.724529
2005-05-24 09:49:01 51°20.33 2°30.511 12.0186 3.814205 32.989332 2.488563
2005-05-24 09:50:01 51°20.443 2°30.796 12.0132 3.820107 33.051769 2.555982
2005-05-24 09:51:02 51°20.572 2°31.08 12.0007 3.825272 33.102942 2.690819
2005-05-24 09:52:01 51°20.697 2°31.364 11.9723 3.825272 33.10992 2.758238
2005-05-24 09:53:01 51°20.807 2°31.66 11.9243 3.826326 33.157135 2.690819
2005-05-24 09:54:01 51°20.907 2°31.961 11.9246 3.824219 33.168296 2.825657
2005-05-24 09:55:01 51°21.018 2°32.249 11.9731 3.821795 33.145576 2.589691
2005-05-24 09:56:02 51°21.121 2°32.544 11.9237 3.821268 33.137684 2.589691
2005-05-24 09:57:02 51°21.23 2°32.841 11.9046 3.819265 33.130942 2.555982
2005-05-24 09:58:02 51°21.337 2°33.132 11.8892 3.81779 33.132093 2.6234
2005-05-24 09:59:01 51°21.441 2°33.432 11.8948 3.816525 33.12337 2.6234
2005-05-24 10:00:01 51°21.554 2°33.727 11.9492 3.815366 33.100959 2.421144
2005-05-24 10:01:01 51°21.669 2°34.024 11.9344 3.814733 33.061296 2.6234
2005-05-24 10:02:01 51°21.782 2°34.323 11.9111 3.813047 33.065969 2.522272
2005-05-24 10:03:01 51°21.891 2°34.632 11.8906 3.814101 33.090137 2.589691
2005-05-24 10:04:01 51°21.998 2°34.935 11.8583 3.813363 33.095605 2.522272
2005-05-24 10:05:01 51°22.105 2°35.234 11.8483 3.812942 33.126571 2.421144
2005-05-24 10:06:01 51°22.208 2°35.537 11.8602 3.814101 33.129371 2.690819
2005-05-24 10:07:02 51°22.299 2°35.861 11.8701 3.812415 33.106747 2.555982
2005-05-24 10:08:01 51°22.398 2°36.174 11.8505 3.810202 33.094447 2.488563
2005-05-24 10:09:01 51°22.5 2°36.49 11.8644 3.808832 33.083294 2.589691
2005-05-24 10:10:01 51°22.597 2°36.796 11.8849 3.806091 33.040692 2.555982
2005-05-24 10:11:02 51°22.696 2°37.112 11.8783 3.804616 33.013849 2.6234
2005-05-24 10:12:01 51°22.794 2°37.426 11.8605 3.803562 33.004362 2.758238
2005-05-24 10:13:01 51°22.891 2°37.744 11.8586 3.802824 33.018889 2.690819
2005-05-24 10:14:01 51°22.993 2°38.046 11.8935 3.801454 32.996558 2.589691
2005-05-24 10:15:01 51°23.081 2°38.356 11.9253 3.798397 32.943308 2.353725
2005-05-24 10:16:01 51°23.165 2°38.675 11.912 3.795235 32.894686 2.522272
2005-05-24 10:17:01 51°23.247 2°38.996 11.9073 3.790809 32.85891 2.522272
2005-05-24 10:18:01 51°23.334 2°39.319 11.9047 3.788069 32.835239 2.454853
2005-05-24 10:19:02 51°23.42 2°39.645 11.8959 3.78438 32.798946 2.353725
2005-05-24 10:20:01 51°23.506 2°39.961 11.9058 3.7789 32.750912 2.589691
2005-05-24 10:21:02 51°23.593 2°40.292 11.9019 3.77637 32.722356 2.690819
2005-05-24 10:22:02 51°23.688 2°40.617 11.8938 3.772576 32.689903 2.859366
2005-05-24 10:23:01 51°23.772 2°40.944 11.8947 3.771207 32.685671 2.690819
2005-05-24 10:24:01 51°23.862 2°41.271 11.9043 3.765094 32.615663 2.859366
2005-05-24 10:25:01 51°23.963 2°41.58 11.9055 3.76404 32.6055 2.893076
2005-05-24 10:26:02 51°24.06 2°41.893 11.9041 3.75993 32.556924 2.6234
2005-05-24 10:27:01 51°24.155 2°42.212 11.9142 3.759297 32.541203 2.65711
2005-05-24 10:28:01 51°24.256 2°42.531 11.9248 3.756663 32.524063 2.522272
2005-05-24 10:29:01 51°24.359 2°42.846 11.9203 3.755082 32.500589 2.522272
2005-05-24 10:30:02 51°24.46 2°43.166 11.9723 3.751815 32.462262 2.589691
2005-05-24 10:31:01 51°24.556 2°43.488 11.9946 3.748547 32.391814 2.454853
2005-05-24 10:32:01 51°24.658 2°43.812 12.0083 3.746228 32.356553 2.488563
2005-05-24 10:33:01 51°24.757 2°44.137 12.0078 3.734741 32.229184 2.65711
2005-05-24 10:34:02 51°24.84 2°44.47 12.0032 3.738219 32.26258 2.522272
2005-05-24 10:35:01 51°24.922 2°44.798 11.9831 3.743383 32.320348 2.859366
2005-05-24 10:36:02 51°25.015 2°45.122 11.9698 3.742645 32.32893 2.65711
2005-05-24 10:37:02 51°25.1 2°45.455 11.9753 3.741592 32.324934 2.690819
2005-05-24 10:38:01 51°25.183 2°45.784 12.0063 3.738957 32.30233 3.297589
2005-05-24 10:39:02 51°25.27 2°46.116 12.0534 3.734425 32.227506 2.960494
2005-05-24 10:40:01 51°25.34 2°46.463 12.08 3.726521 32.095511 3.095332
2005-05-24 10:41:02 51°25.414 2°46.807 12.074 3.723991 32.069254 3.061623
2005-05-24 10:42:01 51°25.492 2°47.152 12.069 3.723043 32.066235 3.061623
2005-05-24 10:43:02 51°25.583 2°47.49 12.1015 3.721989 32.054115 3.129042
2005-05-24 10:44:01 51°25.686 2°47.807 12.1764 3.717563 31.981458 3.129042
2005-05-24 10:45:01 51°25.796 2°48.106 12.2162 3.713241 31.884542 3.027913
2005-05-24 10:46:02 51°25.896 2°48.295 12.2591 3.708709 31.800613 2.960494
2005-05-24 10:47:01 51°25.973 2°48.396 12.2649 3.707655 31.758662 3.23017
2005-05-24 10:48:02 51°26.014 2°48.485 12.2695 3.707971 31.7557 3.162751
2005-05-24 10:49:02 51°26.025 2°48.5 12.2586 3.707971 31.753709 3.129042
2005-05-24 10:50:01 51°26.037 2°48.522 12.2661 3.70618 31.745271 3.76952
2005-05-24 10:51:01 51°26.048 2°48.546 12.2613 3.707234 31.757966 3.735811
2005-05-24 10:52:01 51°26.057 2°48.576 12.2615 3.708287 31.762694 3.702101
2005-05-24 10:53:02 51°26.064 2°48.606 12.2593 3.708498 31.767358 3.567264
2005-05-24 10:54:01 51°26.073 2°48.636 12.2696 3.708287 31.764686 3.499845
2005-05-24 10:55:02 51°26.082 2°48.667 12.2768 3.708182 31.758371 3.398717
2005-05-24 10:56:01 51°26.091 2°48.7 12.2755 3.708498 31.756073 3.466136
2005-05-24 10:57:02 51°26.102 2°48.732 12.2727 3.709025 31.760428 3.432426
2005-05-24 10:58:01 51°26.112 2°48.763 12.2735 3.708814 31.757757 3.297589
2005-05-24 10:59:01 51°26.124 2°48.797 12.2808 3.708393 31.755069 3.466136
2005-05-24 11:00:02 51°26.112 2°48.948 12.2763 3.709552 31.765446 3.668392
2005-05-24 11:01:01 51°26.169 2°49.285 12.2941 3.708919 31.758097 3.263879
2005-05-24 11:02:02 51°26.237 2°49.648 12.2764 3.707971 31.738454 3.162751
2005-05-24 11:03:01 51°26.298 2°50.006 12.2872 3.708919 31.75677 2.960494
2005-05-24 11:04:01 51°26.368 2°50.366 12.3513 3.709552 31.756156 2.994204
2005-05-24 11:05:01 51°26.411 2°50.738 12.2856 3.709973 31.755527 3.061623
2005-05-24 11:06:01 51°26.457 2°51.115 12.2753 3.708287 31.74279 2.859366
2005-05-24 11:07:01 51°26.504 2°51.489 12.3172 3.708919 31.762079 2.926785
2005-05-24 11:08:01 51°26.549 2°51.862 12.3379 3.704704 31.692133 3.027913
2005-05-24 11:09:02 51°26.591 2°52.236 12.3459 3.700594 31.631908 3.061623
2005-05-24 11:10:01 51°26.627 2°52.606 12.3433 3.695009 31.570921 2.994204
2005-05-24 11:11:01 51°26.67 2°52.979 12.3405 3.692796 31.543976 2.893076
2005-05-24 11:12:01 51°26.711 2°53.356 12.3149 3.693533 31.551641 2.65711
2005-05-24 11:13:01 51°26.799 2°53.714 12.5084 3.692164 31.572198 2.6234
2005-05-24 11:14:01 51°26.893 2°54.068 12.5864 3.677619 31.241052 2.960494
2005-05-24 11:15:02 51°26.965 2°54.44 12.5928 3.67098 31.148676 2.6234
2005-05-24 11:16:01 51°27.032 2°54.808 12.6238 3.676038 31.189932 2.724529
2005-05-24 11:17:01 51°27.092 2°55.185 12.6795 3.658545 30.983336 2.926785
2005-05-24 11:18:01 51°27.151 2°55.556 12.6872 3.658334 30.942995 2.926785
2005-05-24 11:19:01 51°27.215 2°55.929 12.6355 3.663813 30.995788 2.589691
2005-05-24 11:20:02 51°27.28 2°56.303 12.5794 3.66276 31.029422 2.859366
2005-05-24 11:21:01 51°27.342 2°56.664 12.5592 3.670874 31.147682 2.724529
2005-05-24 11:22:01 51°27.401 2°57.041 12.4832 3.669716 31.156744 2.791947
2005-05-24 11:23:02 51°27.459 2°57.422 12.6198 3.664658 31.14967 2.859366
2005-05-24 11:24:02 51°27.521 2°57.8 12.603 3.663182 31.032108 2.825657
2005-05-24 11:25:01 51°27.579 2°58.166 12.5786 3.66687 31.095114 2.690819
2005-05-24 11:26:01 51°27.636 2°58.542 12.5321 3.663182 31.089943 2.791947
2005-05-24 11:27:02 51°27.691 2°58.922 12.5101 3.669821 31.188106 2.690819
2005-05-24 11:28:01 51°27.749 2°59.3 12.5376 3.664974 31.135863 2.488563
2005-05-24 11:29:02 51°27.808 2°59.678 12.6186 3.66824 31.146693 2.724529
2005-05-24 11:30:01 51°27.859 3°0.061 12.6052 3.662023 31.041083 2.859366
2005-05-24 11:31:01 51°27.914 3°0.439 12.5974 3.660021 31.025429 2.690819
2005-05-24 11:32:02 51°27.971 3°0.824 12.6024 3.660232 31.03576 2.994204
2005-05-24 11:33:02 51°28.034 3°1.202 12.6228 3.657808 30.994325 2.859366
2005-05-24 11:34:02 51°28.103 3°1.581 12.6503 3.657491 30.980459 2.960494
2005-05-24 11:35:01 51°28.162 3°1.953 12.6673 3.653276 30.917144 2.926785
2005-05-24 11:36:02 51°28.218 3°2.338 12.5786 3.648324 30.876947 2.825657
2005-05-24 11:37:01 51°28.277 3°2.714 12.6278 3.652644 30.946346 3.162751
2005-05-24 11:38:01 51°28.307 3°3.101 12.6134 3.653909 30.94098 2.893076
2005-05-24 11:39:01 51°28.273 3°3.32 12.6281 3.65412 30.955116 3.061623
2005-05-24 11:40:01 51°28.252 3°3.438 12.6179 3.648429 30.899637 2.926785
2005-05-24 11:41:01 51°28.266 3°3.523 12.622 3.650326 30.91685 3.162751
2005-05-24 11:42:01 51°28.287 3°3.557 12.618 3.641791 30.837168 3.19646
2005-05-24 11:43:02 51°28.309 3°3.6 12.6072 3.643266 30.858703 3.432426
2005-05-24 11:44:01 51°28.328 3°3.653 12.6026 3.641159 30.840782 3.80323
2005-05-24 11:45:02 51°28.347 3°3.711 12.6132 3.640948 30.844538 3.567264
2005-05-24 11:46:01 51°28.364 3°3.77 12.6178 3.64137 30.832565 3.836939
2005-05-24 11:47:01 51°28.381 3°3.829 12.6134 3.638314 30.810185 3.533554
2005-05-24 11:48:02 51°28.398 3°3.89 12.6119 3.649694 30.915372 3.567264
2005-05-24 11:49:01 51°28.415 3°3.948 12.6217 3.65138 30.934441 4.039195
2005-05-24 11:50:02 51°28.433 3°4.007 12.6263 3.645374 30.867689 3.466136
2005-05-24 11:51:01 51°28.408 3°4.151 12.6188 3.645479 30.866767 3.600973
2005-05-24 11:52:02 51°28.293 3°4.454 12.625 3.643793 30.851542 3.499845
2005-05-24 11:53:01 51°28.149 3°4.738 12.6045 3.640948 30.834973 3.162751
2005-05-24 11:54:02 51°28.003 3°5.029 12.5889 3.645269 30.888404 3.061623
2005-05-24 11:55:02 51°27.855 3°5.316 12.5729 3.638314 30.821655 3.735811
2005-05-24 11:56:02 51°27.704 3°5.601 12.5774 3.63863 30.843769 4.072905
2005-05-24 11:57:02 51°27.555 3°5.888 12.5861 3.64274 30.879283 4.275161
2005-05-24 11:58:01 51°27.408 3°6.173 12.5934 3.633783 30.782193 4.140324
2005-05-24 11:59:01 51°27.26 3°6.463 12.6045 3.636101 30.811023 4.645965
2005-05-24 12:00:02 51°27.109 3°6.751 12.5869 3.639262 30.826118 5.117896
2005-05-24 12:01:02 51°26.96 3°7.039 12.559 3.633889 30.794013 4.679674
2005-05-24 12:02:01 51°26.813 3°7.322 12.5817 3.630306 30.77302 6.398853
2005-05-24 12:03:02 51°26.664 3°7.61 12.5972 3.633362 30.785867 7.882067
2005-05-24 12:04:02 51°26.526 3°7.877 12.6226 3.629884 30.73533 7.511264
2005-05-24 12:05:01 51°26.459 3°8.085 12.6471 3.634837 30.764114 7.983195
2005-05-24 12:06:02 51°26.481 3°8.247 12.6617 3.634942 30.747316 7.511264
2005-05-24 12:07:01 51°26.507 3°8.336 12.6756 3.635047 30.738152 7.241589
2005-05-24 12:08:02 51°26.527 3°8.358 12.6739 3.635047 30.728004 7.14046
2005-05-24 12:09:01 51°26.545 3°8.396 12.6643 3.63589 30.744168 8.016905
2005-05-24 12:10:02 51°26.566 3°8.444 12.6626 3.635468 30.745285 8.556255
2005-05-24 12:11:02 51°26.584 3°8.499 12.6663 3.638524 30.768283 8.623674
2005-05-24 12:12:02 51°26.599 3°8.556 12.6585 3.638629 30.771178 7.983195
2005-05-24 12:13:02 51°26.614 3°8.613 12.6519 3.635679 30.749169 8.016905
2005-05-24 12:14:01 51°26.621 3°8.69 12.6579 3.635468 30.750998 8.118033
2005-05-24 12:15:01 51°26.546 3°8.945 12.6591 3.636206 30.753485 8.084324
2005-05-24 12:16:01 51°26.432 3°9.272 12.6888 3.639262 30.775213 8.016905
2005-05-24 12:17:01 51°26.314 3°9.601 12.7146 3.639577 30.75787 8.016905
2005-05-24 12:18:01 51°26.193 3°9.932 12.7322 3.672032 31.042342 8.118033
2005-05-24 12:19:02 51°26.069 3°10.261 12.7476 3.666341 30.975473 8.050614
2005-05-24 12:20:01 51°25.948 3°10.586 12.7715 3.672032 31.014217 9.129315
2005-05-24 12:21:01 51°25.827 3°10.914 12.8001 3.672558 30.998103 8.927059
2005-05-24 12:22:02 51°25.7 3°11.237 12.8215 3.672558 30.979621 9.567537
2005-05-24 12:23:02 51°25.581 3°11.568 12.8444 3.6734 30.963972 8.994477
2005-05-24 12:24:01 51°25.52 3°11.94 12.8624 3.673295 30.949 8.724802
2005-05-24 12:25:01 51°25.521 3°12.338 12.8629 3.674981 30.950175 8.82593
2005-05-24 12:26:02 51°25.528 3°12.74 12.85 3.675718 30.961527 9.196734
2005-05-24 12:27:02 51°25.539 3°13.137 12.8321 3.676245 30.979813 10.005759
2005-05-24 12:28:02 51°25.566 3°13.534 12.8402 3.675824 30.984772 10.005759
2005-05-24 12:29:01 51°25.588 3°13.924 12.8729 3.675508 30.969724 10.106888
2005-05-24 12:30:02 51°25.611 3°14.32 12.8899 3.675718 30.94819 11.219298
2005-05-24 12:31:02 51°25.633 3°14.716 12.908 3.675613 30.933245 10.174306
2005-05-24 12:32:02 51°25.643 3°15.111 12.9228 3.675402 30.917962 11.050751
2005-05-24 12:33:02 51°25.67 3°15.509 12.9287 3.675191 30.905226 10.915913
2005-05-24 12:34:02 51°25.695 3°15.903 12.9383 3.675191 30.895734 9.331571
2005-05-24 12:35:02 51°25.72 3°16.298 12.9375 3.67498 30.886808 9.702375
2005-05-24 12:36:02 51°25.747 3°16.695 12.9441 3.673294 30.874219 9.129315
2005-05-24 12:37:01 51°25.777 3°17.089 12.9586 3.671186 30.847585 7.511264
2005-05-24 12:38:02 51°25.802 3°17.462 12.9595 3.668657 30.814508 7.511264
2005-05-24 12:39:02 51°25.84 3°17.692 12.9596 3.664758 30.779375 6.803366
2005-05-24 12:40:02 51°25.908 3°17.775 12.9783 3.663178 30.762104 7.477554
2005-05-24 12:41:02 51°25.927 3°17.821 12.9709 3.664547 30.762931 6.735947
2005-05-24 12:42:02 51°25.945 3°17.864 12.969 3.664863 30.770285 6.904494
2005-05-24 12:43:02 51°25.966 3°17.896 12.9687 3.66518 30.776382 6.702238
2005-05-24 12:44:02 51°25.988 3°17.92 12.9862 3.665917 30.780747 7.275298
2005-05-24 12:45:02 51°26.007 3°17.933 12.9894 3.668024 30.78719 6.466272
2005-05-24 12:46:02 51°26.022 3°17.939 12.9848 3.669394 30.799969 6.837076
2005-05-24 12:47:02 51°26.031 3°17.948 12.973 3.669605 30.806974 6.634819
2005-05-24 12:48:01 51°26.03 3°17.947 12.9706 3.669395 30.813198 7.039332
2005-05-24 12:49:02 51°25.921 3°17.87 12.9726 3.664758 30.770561 6.668529
2005-05-24 12:50:02 51°25.759 3°17.687 12.9822 3.663704 30.756954 7.073042
2005-05-24 12:51:02 51°25.609 3°17.484 12.9676 3.660648 30.724048 7.005623
2005-05-24 12:52:02 51°25.462 3°17.284 12.9658 3.666128 30.783343 7.376426
2005-05-24 12:53:01 51°25.319 3°17.085 12.993 3.665074 30.769105 7.71352
2005-05-24 12:54:02 51°25.17 3°16.884 13.0221 3.658541 30.68996 7.342717
2005-05-24 12:55:01 51°25.027 3°16.689 13.0728 3.651691 30.600487 8.792221
2005-05-24 12:56:01 51°24.882 3°16.486 13.0732 3.62872 30.34954 8.421418
2005-05-24 12:57:01 51°24.729 3°16.283 13.0494 3.615549 30.237688 8.657383
2005-05-24 12:58:02 51°24.575 3°16.092 13.0657 3.623241 30.317182 9.466409
2005-05-24 12:59:01 51°24.429 3°15.909 13.0555 3.624716 30.32347 9.567537
2005-05-24 13:00:02 51°24.281 3°15.711 13.0407 3.614179 30.232363 9.97205
2005-05-24 13:01:02 51°24.15 3°15.49 13.0446 3.60712 30.176636 12.264289
2005-05-24 13:02:02 51°24.039 3°15.241 13.0552 3.606277 30.165112 14.4554
2005-05-24 13:03:02 51°23.928 3°14.992 13.0559 3.604696 30.146126 14.556529
2005-05-24 13:04:02 51°23.776 3°14.814 13.0668 3.603116 30.131448 14.421691
2005-05-24 13:05:02 51°23.595 3°14.687 13.0609 3.601746 30.109516 13.646375
2005-05-24 13:06:01 51°23.426 3°14.539 13.0631 3.590578 30.013206 13.34299
2005-05-24 13:07:02 51°23.283 3°14.334 13.0429 3.58257 29.931575 12.533965
2005-05-24 13:08:02 51°23.147 3°14.125 13.0378 3.574984 29.875842 13.983469
2005-05-24 13:09:02 51°23.011 3°13.913 13.0513 3.569611 29.832692 14.017178
2005-05-24 13:10:02 51°22.874 3°13.705 13.0695 3.566134 29.785854 14.185725
2005-05-24 13:11:02 51°22.746 3°13.489 13.0702 3.561709 29.733313 13.208153
2005-05-24 13:12:02 51°22.64 3°13.318 13.0857 3.554017 29.659642 13.680084
2005-05-24 13:13:01 51°22.611 3°13.256 13.0888 3.544641 29.564378 13.612665
2005-05-24 13:14:02 51°22.611 3°13.258 13.0847 3.539689 29.520958 14.253144
2005-05-24 13:15:02 51°22.617 3°13.278 13.0912 3.537792 29.501004 15.095879
2005-05-24 13:16:02 51°22.626 3°13.307 13.092 3.537582 29.495449 14.354272
2005-05-24 13:17:02 51°22.638 3°13.343 13.093 3.537055 29.491777 14.961042
2005-05-24 13:18:02 51°22.653 3°13.383 13.0931 3.537476 29.492672 15.163298
2005-05-24 13:19:02 51°22.668 3°13.419 13.1198 3.538214 29.492287 14.691366
2005-05-24 13:20:02 51°22.683 3°13.456 13.1219 3.540426 29.498936 14.017178
2005-05-24 13:21:02 51°22.659 3°13.362 13.1156 3.540531 29.501712 13.983469
2005-05-24 13:22:02 51°22.589 3°13.102 13.1057 3.540847 29.507637 13.646375
2005-05-24 13:23:02 51°22.528 3°12.823 13.0908 3.537371 29.489295 14.758785
2005-05-24 13:24:02 51°22.485 3°12.536 13.1038 3.535369 29.473781 15.298136
2005-05-24 13:25:02 51°22.479 3°12.244 13.111 3.535474 29.464554 16.983606
2005-05-24 13:26:02 51°22.438 3°11.967 13.0952 3.534316 29.456236 16.545383
2005-05-24 13:27:02 51°22.346 3°11.716 13.1437 3.533473 29.447843 16.309418
2005-05-24 13:28:02 51°22.258 3°11.464 13.1585 3.542743 29.496357 16.309418
2005-05-24 13:29:01 51°22.17 3°11.21 13.1591 3.543165 29.495453 16.140871
2005-05-24 13:30:02 51°22.085 3°10.946 13.1638 3.543586 29.501145 17.219571
2005-05-24 13:31:02 51°22.002 3°10.681 13.1797 3.548854 29.540807 18.197144
2005-05-24 13:32:02 51°21.923 3°10.417 13.1848 3.553806 29.579339 17.3207
2005-05-24 13:33:02 51°21.846 3°10.156 13.2002 3.55802 29.609247 16.882477
2005-05-24 13:34:02 51°21.767 3°9.896 13.1971 3.56097 29.629273 17.017315
2005-05-24 13:35:02 51°21.681 3°9.638 13.1861 3.563288 29.659714 16.71393
2005-05-24 13:36:02 51°21.595 3°9.377 13.1878 3.564025 29.664719 16.477965
2005-05-24 13:37:02 51°21.502 3°9.117 13.18 3.565184 29.675426 16.612802
2005-05-24 13:38:02 51°21.397 3°8.866 13.1818 3.564552 29.6726 18.298272
2005-05-24 13:39:02 51°21.29 3°8.618 13.1846 3.564868 29.67552 18.871332
2005-05-24 13:40:02 51°21.179 3°8.373 13.2085 3.566027 29.684419 19.747777
2005-05-24 13:41:02 51°21.072 3°8.128 13.2166 3.570136 29.705493 19.376973
2005-05-24 13:42:02 51°20.963 3°7.884 13.2328 3.576457 29.747582 17.219571
2005-05-24 13:43:02 51°20.85 3°7.636 13.2159 3.578459 29.761839 16.309418
2005-05-24 13:44:02 51°20.73 3°7.393 13.2186 3.577932 29.768448 17.185862
2005-05-24 13:45:02 51°20.616 3°7.15 13.3331 3.594052 29.892515 18.601657
2005-05-24 13:46:02 51°20.493 3°6.911 13.3475 3.629665 30.151949 14.387982
2005-05-24 13:46:51 51°20.391 3°6.72 13.3638 3.634512 30.193012 14.084597
2005-05-24 13:47:47 51°20.279 3°6.504 13.3736 3.642941 30.249402 13.511537
2005-05-24 13:48:46 51°20.158 3°6.282 13.3701 3.648421 30.297502 14.152016
2005-05-24 13:49:47 51°20.042 3°6.037 13.3536 3.648947 30.306649 13.511537
2005-05-24 13:50:46 51°19.932 3°5.795 13.3404 3.649791 30.330363 14.286853
2005-05-24 13:51:46 51°19.834 3°5.538 13.2952 3.650107 30.353536 13.612665
2005-05-24 13:52:47 51°19.728 3°5.281 13.2728 3.651899 30.397152 14.084597
2005-05-24 13:53:47 51°19.623 3°5.026 13.2558 3.652215 30.423496 13.410409
2005-05-24 13:54:46 51°19.519 3°4.775 13.1998 3.653164 30.443383 13.309281
2005-05-24 13:55:47 51°19.416 3°4.513 13.165 3.664123 30.584583 13.578956
2005-05-24 13:56:46 51°19.316 3°4.262 13.1329 3.669603 30.666566 13.747503
2005-05-24 13:57:46 51°19.217 3°4.007 13.1154 3.670973 30.703645 13.848631
2005-05-24 13:58:47 51°19.116 3°3.747 13.0956 3.67129 30.712211 13.983469
2005-05-24 13:59:46 51°19.017 3°3.496 13.0904 3.669815 30.715383 14.017178
2005-05-24 14:00:46 51°18.914 3°3.244 13.0771 3.669288 30.71862 13.174443
2005-05-24 14:01:47 51°18.808 3°2.987 13.092 3.66718 30.697761 13.208153
2005-05-24 14:02:46 51°18.707 3°2.74 13.1046 3.665494 30.675201 14.084597
2005-05-24 14:03:46 51°18.603 3°2.488 13.1072 3.663492 30.651586 12.635093
2005-05-24 14:04:46 51°18.498 3°2.231 13.0983 3.662333 30.638313 12.668802
2005-05-24 14:05:46 51°18.396 3°1.976 13.0932 3.660963 30.631194 12.466546
2005-05-24 14:06:46 51°18.289 3°1.719 13.094 3.660226 30.625584 13.005896
2005-05-24 14:07:46 51°18.184 3°1.463 13.0893 3.661069 30.637167 13.713794
2005-05-24 14:08:46 51°18.081 3°1.207 13.0984 3.661279 30.642873 13.612665
2005-05-24 14:09:46 51°17.978 3°0.957 13.1197 3.660015 30.619881 14.657657
2005-05-24 14:10:46 51°17.877 3°0.711 13.1553 3.656221 30.560963 13.174443
2005-05-24 14:11:46 51°17.775 3°0.459 13.1588 3.65327 30.512449 12.062033
2005-05-24 14:12:46 51°17.674 3°0.21 13.1592 3.652849 30.507297 11.017042
2005-05-24 14:13:46 51°17.573 2°59.965 13.1623 3.652322 30.503028 11.017042
2005-05-24 14:14:47 51°17.468 2°59.712 13.1575 3.651057 30.491915 9.97205
2005-05-24 14:15:46 51°17.365 2°59.464 13.1409 3.651479 30.498927 9.634956
2005-05-24 14:16:47 51°17.261 2°59.21 13.1519 3.650531 30.49757 8.893349
2005-05-24 14:17:46 51°17.159 2°58.957 13.1537 3.648318 30.470213 9.028187
2005-05-24 14:18:46 51°17.052 2°58.698 13.1646 3.647791 30.467183 9.39899
2005-05-24 14:19:47 51°16.944 2°58.438 13.1524 3.650847 30.483141 10.106888
2005-05-24 14:20:46 51°16.841 2°58.188 13.1539 3.653481 30.520612 10.54511
2005-05-24 14:21:46 51°16.736 2°57.937 13.1541 3.654324 30.523469 9.500118
2005-05-24 14:22:46 51°16.632 2°57.688 13.1775 3.652216 30.50143 9.533828
2005-05-24 14:23:47 51°16.532 2°57.435 13.1891 3.65601 30.518636 9.028187
2005-05-24 14:24:46 51°16.432 2°57.183 13.1697 3.669076 30.641107 8.724802
2005-05-24 14:25:47 51°16.331 2°56.925 13.1618 3.672448 30.682382 8.016905
2005-05-24 14:26:47 51°16.229 2°56.669 13.1566 3.674872 30.708632 7.74723
2005-05-24 14:27:46 51°16.128 2°56.417 13.1569 3.676979 30.733206 8.28658
2005-05-24 14:28:46 51°16.026 2°56.16 13.1521 3.679192 30.754389 7.814648
2005-05-24 14:29:46 51°15.921 2°55.908 13.1418 3.67993 30.769378 7.74723
2005-05-24 14:30:46 51°15.812 2°55.656 13.138 3.680035 30.775993 7.949486
2005-05-24 14:31:47 51°15.687 2°55.417 13.1076 3.6813 30.797775 7.511264
2005-05-24 14:32:46 51°15.53 2°55.234 13.0815 3.681195 30.819383 7.780939
2005-05-24 14:33:46 51°15.348 2°55.119 13.0565 3.682354 30.845883 8.792221
2005-05-24 14:34:46 51°15.157 2°55.064 13.0471 3.686464 30.905575 8.016905
2005-05-24 14:35:47 51°14.959 2°55.019 13.0487 3.687413 30.923878 8.994477
2005-05-24 14:36:46 51°14.768 2°54.977 13.0934 3.683725 30.873745 8.589965
2005-05-24 14:37:46 51°14.589 2°54.983 13.1472 3.678455 30.787617 9.297862
2005-05-24 14:38:46 51°14.418 2°55.028 13.2077 3.68151 30.769044 11.11817
2005-05-24 14:39:46 51°14.291 2°55.202 13.4837 3.667179 30.591179 11.859777
2005-05-24 14:40:46 51°14.205 2°55.355 13.5755 3.551273 29.287226 14.017178
2005-05-24 14:41:46 51°14.115 2°55.455 13.7609 3.515663 28.929051 1.072768
2005-05-24 14:42:46 51°14.037 2°55.506 13.8557 3.348482 26.8412 1.039059
2005-05-24 14:43:47 51°13.987 2°55.535 13.9557 2.678144 19.940662 0.567127
2005-05-24 14:44:46 51°13.95 2°55.567 14.0834 2.06559 14.555326 -2.668976
2005-05-24 14:45:46 51°13.884 2°55.61 14.1952 1.60603 10.766731 -2.668976
2005-05-24 14:46:46 51°13.777 2°55.69 14.2919 1.274038 8.229024 -2.668976
2005-05-24 14:47:46 51°13.708 2°55.806 14.4777 0.995645 6.09932 -2.668976
2005-05-24 14:48:47 51°13.656 2°55.921 14.522 0.79862 4.696014 -2.668976
2005-05-24 14:49:46 51°13.621 2°56.036 14.6898 0.655274 3.771701 -2.668976
2005-05-24 14:50:47 51°13.6 2°56.099 14.7974 0.019726 0.101512 -2.702685